createdAt,value
2022-08-23T00:02:30.670Z,79.75
2022-08-23T00:05:09.275Z,80.50
2022-08-23T00:07:41.834Z,80.37
2022-08-23T00:10:14.509Z,79.95
2022-08-23T00:12:45.597Z,79.88
2022-08-23T00:15:18.278Z,79.68
2022-08-23T00:17:51.073Z,79.95
2022-08-23T00:20:23.069Z,80.27
2022-08-23T00:22:53.432Z,80.45
2022-08-23T00:25:23.689Z,80.49
2022-08-23T00:27:53.912Z,80.37
2022-08-23T00:30:24.038Z,80.93
2022-08-23T00:32:57.971Z,80.48
2022-08-23T00:35:28.367Z,80.28
2022-08-23T00:38:31.785Z,80.17
2022-08-23T00:40:53.852Z,80.47
2022-08-23T00:43:42.953Z,81.07
2022-08-23T00:46:33.616Z,81.38
2022-08-23T00:49:09.901Z,81.38
2022-08-23T00:51:52.676Z,81.30
2022-08-23T00:54:24.881Z,81.31
2022-08-23T00:56:56.442Z,81.44
2022-08-23T00:59:26.866Z,81.45
2022-08-23T01:01:57.580Z,81.20
2022-08-23T01:04:34.496Z,81.25
2022-08-23T01:07:09.514Z,81.62
2022-08-23T01:09:42.751Z,81.24
2022-08-23T01:12:32.225Z,81.50
2022-08-23T01:15:08.908Z,81.89
2022-08-23T01:17:44.089Z,82.44
2022-08-23T01:20:21.526Z,82.34
2022-08-23T01:23:01.821Z,82.65
2022-08-23T01:25:36.807Z,82.23
2022-08-23T01:28:07.201Z,82.23
2022-08-23T01:30:39.141Z,82.57
2022-08-23T01:33:10.563Z,82.55
2022-08-23T01:35:43.305Z,82.60
2022-08-23T01:38:15.118Z,82.02
2022-08-23T01:40:48.067Z,81.76
2022-08-23T01:43:19.978Z,81.93
2022-08-23T01:45:50.550Z,82.42
2022-08-23T01:48:22.368Z,82.34
2022-08-23T01:50:52.684Z,82.65
2022-08-23T01:53:22.764Z,82.77
2022-08-23T01:55:55.564Z,82.56
2022-08-23T01:58:25.819Z,82.51
2022-08-23T02:00:55.936Z,82.06
2022-08-23T02:03:26.035Z,82.22
2022-08-23T02:05:56.150Z,82.42
2022-08-23T02:08:38.629Z,82.38
2022-08-23T02:11:15.213Z,82.76
2022-08-23T02:13:46.047Z,83.02
2022-08-23T02:16:16.499Z,83.55
2022-08-23T02:18:50.968Z,83.45
2022-08-23T02:21:21.254Z,83.90
2022-08-23T02:23:51.743Z,84.44
2022-08-23T02:26:31.203Z,84.97
2022-08-23T02:29:01.460Z,84.77
2022-08-23T02:31:31.624Z,85.29
2022-08-23T02:34:01.747Z,85.53
2022-08-23T02:36:31.929Z,85.53
2022-08-23T02:39:02.302Z,85.06
2022-08-23T02:41:35.110Z,85.06
2022-08-23T02:44:05.680Z,85.01
2022-08-23T02:46:35.901Z,85.00
2022-08-23T02:49:06.601Z,85.49
2022-08-23T02:51:38.180Z,84.73
2022-08-23T02:54:09.478Z,84.89
2022-08-23T02:56:42.348Z,85.00
2022-08-23T02:59:13.515Z,85.14
2022-08-23T03:01:45.537Z,84.87
2022-08-23T03:04:15.706Z,85.28
2022-08-23T03:06:45.808Z,85.31
2022-08-23T03:09:15.992Z,85.23
2022-08-23T03:11:51.531Z,85.36
2022-08-23T03:14:21.644Z,85.58
2022-08-23T03:16:52.015Z,85.45
2022-08-23T03:19:22.449Z,85.29
2022-08-23T03:21:52.628Z,85.54
2022-08-23T03:24:22.763Z,85.48
2022-08-23T03:26:55.498Z,85.91
2022-08-23T03:29:28.820Z,85.64
2022-08-23T03:32:01.029Z,85.87
2022-08-23T03:34:31.533Z,86.38
2022-08-23T03:37:02.217Z,86.13
2022-08-23T03:39:32.534Z,86.56
2022-08-23T03:42:05.430Z,86.33
2022-08-23T03:44:39.520Z,86.49
2022-08-23T03:47:09.903Z,86.57
2022-08-23T03:49:40.109Z,85.84
2022-08-23T03:52:11.464Z,86.25
2022-08-23T03:54:42.244Z,86.54
2022-08-23T03:57:14.937Z,86.57
2022-08-23T03:59:45.698Z,86.40
2022-08-23T04:02:15.992Z,86.71
2022-08-23T04:04:46.219Z,86.05
2022-08-23T04:07:20.979Z,86.31
2022-08-23T04:09:54.980Z,86.06
2022-08-23T04:12:28.749Z,86.37
2022-08-23T04:14:58.839Z,85.67
2022-08-23T04:17:32.464Z,85.03
2022-08-23T04:20:03.010Z,84.13
2022-08-23T04:22:33.665Z,83.73
2022-08-23T04:25:03.863Z,83.68
2022-08-23T04:27:36.660Z,82.75
2022-08-23T04:30:08.394Z,82.58
2022-08-23T04:32:38.575Z,81.80
2022-08-23T04:35:09.508Z,81.39
2022-08-23T04:37:39.709Z,80.95
2022-08-23T04:40:25.282Z,79.94
2022-08-23T04:42:57.998Z,79.92
2022-08-23T04:45:28.498Z,78.64
2022-08-23T04:47:58.633Z,77.40
2022-08-23T04:50:28.996Z,76.42
2022-08-23T04:52:59.224Z,76.00
2022-08-23T04:55:29.303Z,75.61
2022-08-23T04:58:02.191Z,75.10
2022-08-23T05:00:32.521Z,73.99
2022-08-23T05:03:03.258Z,74.20
2022-08-23T05:05:33.648Z,73.60
2022-08-23T05:08:03.893Z,73.88
2022-08-23T05:10:34.014Z,74.05
2022-08-23T05:13:06.887Z,73.72
2022-08-23T05:15:36.967Z,73.94
2022-08-23T05:18:07.849Z,75.78
2022-08-23T05:20:38.683Z,76.80
2022-08-23T05:23:08.825Z,77.77
2022-08-23T05:25:51.597Z,78.60
2022-08-23T05:28:28.530Z,79.18
2022-08-23T05:31:02.110Z,80.37
2022-08-23T05:33:33.398Z,80.67
2022-08-23T05:36:24.087Z,80.97
2022-08-23T05:39:17.256Z,81.19
2022-08-23T05:42:22.875Z,80.78
2022-08-23T05:45:20.703Z,82.00
2022-08-23T05:48:11.959Z,82.27
2022-08-23T05:51:11.654Z,81.67
2022-08-23T05:54:03.499Z,81.56
2022-08-23T05:56:53.418Z,81.32
2022-08-23T05:59:43.382Z,80.26
2022-08-23T06:02:36.034Z,80.17
2022-08-23T06:05:26.144Z,79.84
2022-08-23T06:08:16.167Z,78.53
2022-08-23T06:11:08.610Z,78.36
2022-08-23T06:14:00.731Z,78.08
2022-08-23T06:16:56.038Z,77.14
2022-08-23T06:19:29.219Z,76.82
2022-08-23T06:21:59.313Z,76.16
2022-08-23T06:24:29.897Z,76.01
2022-08-23T06:26:59.895Z,75.77
2022-08-23T06:29:30.131Z,74.94
2022-08-23T06:32:00.144Z,73.78
2022-08-23T06:34:35.191Z,70.86
2022-08-23T06:37:11.640Z,69.15
2022-08-23T06:39:42.176Z,66.45
2022-08-23T06:42:38.404Z,64.35
2022-08-23T06:45:05.099Z,62.54
2022-08-23T06:47:35.147Z,61.71
2022-08-23T06:50:09.473Z,59.56
2022-08-23T06:52:39.677Z,58.64
2022-08-23T06:55:13.826Z,57.26
2022-08-23T06:57:44.387Z,56.62
2022-08-23T07:00:20.157Z,55.77
2022-08-23T07:02:52.326Z,54.22
2022-08-23T07:05:25.167Z,54.94
2022-08-23T07:07:55.318Z,53.93
2022-08-23T07:10:25.473Z,54.25
2022-08-23T07:12:55.598Z,53.91
2022-08-23T07:15:25.699Z,53.91
2022-08-23T07:17:56.513Z,54.09
2022-08-23T07:20:29.603Z,53.67
2022-08-23T07:22:59.814Z,52.84
2022-08-23T07:25:30.225Z,53.53
2022-08-23T07:28:02.060Z,53.39
2022-08-23T07:30:32.480Z,52.14
2022-08-23T07:33:02.655Z,53.08
2022-08-23T07:35:40.478Z,52.47
2022-08-23T07:38:10.762Z,52.76
2022-08-23T07:40:40.980Z,51.45
2022-08-23T07:43:11.180Z,51.48
2022-08-23T07:45:43.470Z,51.55
2022-08-23T07:48:20.445Z,51.84
2022-08-23T07:51:02.878Z,51.64
2022-08-23T07:53:37.889Z,50.04
2022-08-23T07:56:10.113Z,50.41
2022-08-23T07:58:40.492Z,49.44
2022-08-23T08:01:16.585Z,49.72
2022-08-23T08:03:48.091Z,48.93
2022-08-23T08:06:23.785Z,48.86
2022-08-23T08:08:54.881Z,48.22
2022-08-23T08:11:32.345Z,48.48
2022-08-23T08:14:07.363Z,48.74
2022-08-23T08:16:40.224Z,48.94
2022-08-23T08:19:14.971Z,47.13
2022-08-23T08:21:49.197Z,47.21
2022-08-23T08:24:20.715Z,47.40
2022-08-23T08:26:51.228Z,48.31
2022-08-23T08:29:21.399Z,46.76
2022-08-23T08:31:54.301Z,47.95
2022-08-23T08:34:24.995Z,47.74
2022-08-23T08:36:59.945Z,46.94
2022-08-23T08:39:31.877Z,45.31
2022-08-23T08:42:17.975Z,45.02
2022-08-23T08:44:54.360Z,45.27
2022-08-23T08:47:31.976Z,46.04
2022-08-23T08:50:09.907Z,46.17
2022-08-23T08:52:46.830Z,47.41
2022-08-23T08:55:23.763Z,46.84
2022-08-23T08:57:55.614Z,47.29
2022-08-23T09:00:30.477Z,45.45
2022-08-23T09:03:02.858Z,45.92
2022-08-23T09:05:36.005Z,45.21
2022-08-23T09:08:19.119Z,44.54
2022-08-23T09:11:01.562Z,43.02
2022-08-23T09:14:01.265Z,43.42
2022-08-23T09:16:46.221Z,43.67
2022-08-23T09:19:16.455Z,43.36
2022-08-23T09:21:49.877Z,43.34
2022-08-23T09:24:22.783Z,41.53
2022-08-23T09:26:54.030Z,42.38
2022-08-23T09:29:27.814Z,41.62
2022-08-23T09:32:02.437Z,41.10
2022-08-23T09:34:44.980Z,41.66
2022-08-23T09:37:20.800Z,41.78
2022-08-23T09:39:56.112Z,40.79
2022-08-23T09:42:32.961Z,39.79
2022-08-23T09:45:04.003Z,40.28
2022-08-23T09:47:44.407Z,40.49
2022-08-23T09:50:27.325Z,40.05
2022-08-23T09:53:04.284Z,39.51
2022-08-23T09:55:40.215Z,39.20
2022-08-23T09:58:20.740Z,37.78
2022-08-23T10:01:11.571Z,38.68
2022-08-23T10:03:42.890Z,39.48
2022-08-23T10:06:15.986Z,39.08
2022-08-23T10:08:56.667Z,38.49
2022-08-23T10:11:32.791Z,39.46
2022-08-23T10:14:03.074Z,38.66
2022-08-23T10:16:40.039Z,38.99
2022-08-23T10:19:21.066Z,39.40
2022-08-23T10:22:00.825Z,41.54
2022-08-23T10:24:41.877Z,41.39
2022-08-23T10:27:37.530Z,41.29
2022-08-23T10:30:14.458Z,41.27
2022-08-23T10:32:58.708Z,41.39
2022-08-23T10:35:38.021Z,41.78
2022-08-23T10:38:24.929Z,40.83
2022-08-23T10:41:02.882Z,40.16
2022-08-23T10:43:45.813Z,40.96
2022-08-23T10:46:16.139Z,40.50
2022-08-23T10:48:53.967Z,40.02
2022-08-23T10:51:31.474Z,39.26
2022-08-23T10:54:07.734Z,38.68
2022-08-23T10:56:42.960Z,39.35
2022-08-23T10:59:25.610Z,39.46
2022-08-23T11:02:01.315Z,39.59
2022-08-23T11:04:41.309Z,38.94
2022-08-23T11:07:20.944Z,38.72
2022-08-23T11:09:55.741Z,39.20
2022-08-23T11:12:31.697Z,38.52
2022-08-23T11:15:24.844Z,38.54
2022-08-23T11:18:14.131Z,38.11
2022-08-23T11:21:07.833Z,37.76
2022-08-23T11:23:59.391Z,38.14
2022-08-23T11:27:08.286Z,38.13
2022-08-23T11:29:43.505Z,37.41
2022-08-23T11:32:48.314Z,37.66
2022-08-23T11:35:43.265Z,38.67
2022-08-23T11:38:15.838Z,39.29
2022-08-23T11:41:02.277Z,39.67
2022-08-23T11:43:38.266Z,39.82
2022-08-23T11:46:31.453Z,39.05
2022-08-23T11:49:33.185Z,39.68
2022-08-23T11:52:17.800Z,40.17
2022-08-23T11:55:18.960Z,40.22
2022-08-23T11:58:03.225Z,40.88
2022-08-23T12:01:00.794Z,39.17
2022-08-23T12:03:35.377Z,39.56
2022-08-23T12:06:39.160Z,39.92
2022-08-23T12:09:39.209Z,39.97
2022-08-23T12:12:27.988Z,39.07
2022-08-23T12:15:00.960Z,40.57
2022-08-23T12:18:12.675Z,39.94
2022-08-23T12:20:48.391Z,40.23
2022-08-23T12:23:23.848Z,40.51
2022-08-23T12:26:12.336Z,39.50
2022-08-23T12:28:48.395Z,39.60
2022-08-23T12:31:30.519Z,38.50
2022-08-23T12:34:25.273Z,39.10
2022-08-23T12:37:09.590Z,39.49
2022-08-23T12:39:42.518Z,39.94
2022-08-23T12:42:18.427Z,40.37
2022-08-23T12:44:50.741Z,39.68
2022-08-23T12:47:23.547Z,38.84
2022-08-23T12:49:59.419Z,39.92
2022-08-23T12:52:31.615Z,39.33
2022-08-23T12:55:01.928Z,38.41
2022-08-23T12:57:41.274Z,38.67
2022-08-23T13:00:24.018Z,39.67
2022-08-23T13:03:01.696Z,39.34
2022-08-23T13:05:40.024Z,39.01
2022-08-23T13:08:14.029Z,38.38
2022-08-23T13:10:46.656Z,38.30
2022-08-23T13:13:26.001Z,37.59
2022-08-23T13:15:58.656Z,36.84
2022-08-23T13:18:34.477Z,37.56
2022-08-23T13:21:27.482Z,39.51
2022-08-23T13:24:00.811Z,38.40
2022-08-23T13:26:42.768Z,38.86
2022-08-23T13:29:26.080Z,38.97
2022-08-23T13:32:05.858Z,37.94
2022-08-23T13:34:39.517Z,37.60
2022-08-23T13:37:22.836Z,38.25
2022-08-23T13:39:58.458Z,38.60
2022-08-23T13:42:36.941Z,38.03
2022-08-23T13:45:17.967Z,39.40
2022-08-23T13:47:51.429Z,38.11
2022-08-23T13:50:27.733Z,38.90
2022-08-23T13:53:13.857Z,38.89
2022-08-23T13:55:49.099Z,38.18
2022-08-23T13:58:31.665Z,37.24
2022-08-23T14:01:06.666Z,36.82
2022-08-23T14:03:36.790Z,37.10
2022-08-23T14:06:11.048Z,37.15
2022-08-23T14:08:41.264Z,37.44
2022-08-23T14:11:11.951Z,37.22
2022-08-23T14:13:42.102Z,37.51
2022-08-23T14:16:39.126Z,37.51
2022-08-23T14:19:16.184Z,36.99
2022-08-23T14:21:46.897Z,37.12
2022-08-23T14:24:17.193Z,37.72
2022-08-23T14:26:50.209Z,38.44
2022-08-23T14:29:22.552Z,36.68
2022-08-23T14:31:55.604Z,37.04
2022-08-23T14:34:25.760Z,37.28
2022-08-23T14:39:46.745Z,36.54
2022-08-23T14:42:22.627Z,35.97
2022-08-23T14:44:52.960Z,36.05
2022-08-23T14:47:26.942Z,36.65
2022-08-23T14:49:57.261Z,36.30
2022-08-23T14:52:27.445Z,36.68
2022-08-23T14:54:57.547Z,36.60
2022-08-23T14:57:27.675Z,36.79
2022-08-23T14:59:59.458Z,36.77
2022-08-23T15:02:32.966Z,37.56
2022-08-23T15:05:03.224Z,36.91
2022-08-23T15:07:33.368Z,36.47
2022-08-23T15:10:03.541Z,36.77
2022-08-23T15:15:25.454Z,36.88
2022-08-23T15:18:01.101Z,36.83
2022-08-23T15:20:34.697Z,37.42
2022-08-23T15:23:04.971Z,38.14
2022-08-23T15:25:38.257Z,37.43
2022-08-23T15:28:13.078Z,38.02
2022-08-23T15:30:44.292Z,38.12
2022-08-23T15:33:17.129Z,37.75
2022-08-23T15:35:49.366Z,38.28
2022-08-23T15:38:23.184Z,38.42
2022-08-23T15:40:54.594Z,38.31
2022-08-23T15:43:34.003Z,38.30
2022-08-23T15:46:08.134Z,38.79
2022-08-23T15:48:46.533Z,39.02
2022-08-23T15:51:17.800Z,38.33
2022-08-23T15:53:47.942Z,38.95
2022-08-23T15:56:21.993Z,38.62
2022-08-23T15:58:52.378Z,38.00
2022-08-23T16:01:24.640Z,38.70
2022-08-23T16:03:57.647Z,38.19
2022-08-23T16:06:27.852Z,39.41
2022-08-23T16:08:58.513Z,40.41
2022-08-23T16:11:28.937Z,40.64
2022-08-23T16:13:59.085Z,41.24
2022-08-23T16:16:32.308Z,41.79
2022-08-23T16:19:04.831Z,41.99
2022-08-23T16:21:35.877Z,42.33
2022-08-23T16:24:06.914Z,41.77
2022-08-23T16:26:41.910Z,41.75
2022-08-23T16:29:14.610Z,41.92
2022-08-23T16:31:45.105Z,42.44
2022-08-23T16:34:21.982Z,42.47
2022-08-23T16:36:58.236Z,42.76
2022-08-23T16:39:29.120Z,43.38
2022-08-23T16:42:00.066Z,43.46
2022-08-23T16:44:30.499Z,44.12
2022-08-23T16:47:00.878Z,43.75
2022-08-23T16:49:34.857Z,44.09
2022-08-23T16:52:06.219Z,44.36
2022-08-23T16:54:36.322Z,44.30
2022-08-23T16:57:07.011Z,44.80
2022-08-23T16:59:40.533Z,44.66
2022-08-23T17:02:25.404Z,45.07
2022-08-23T17:04:58.206Z,45.50
2022-08-23T17:07:28.440Z,45.70
2022-08-23T17:09:58.512Z,45.81
2022-08-23T17:12:29.019Z,45.94
2022-08-23T17:14:59.436Z,46.05
2022-08-23T17:17:30.580Z,45.69
2022-08-23T17:20:03.353Z,45.79
2022-08-23T17:22:37.161Z,46.07
2022-08-23T17:25:09.862Z,46.22
2022-08-23T17:27:44.326Z,46.22
2022-08-23T17:30:19.606Z,47.03
2022-08-23T17:32:50.586Z,47.20
2022-08-23T17:35:28.316Z,48.00
2022-08-23T17:38:04.261Z,47.67
2022-08-23T17:40:38.343Z,47.59
2022-08-23T17:43:12.688Z,47.75
2022-08-23T17:45:45.236Z,48.30
2022-08-23T17:48:16.409Z,48.65
2022-08-23T17:50:50.220Z,49.17
2022-08-23T17:53:20.611Z,49.08
2022-08-23T17:55:50.646Z,50.09
2022-08-23T17:58:20.730Z,50.67
2022-08-23T18:00:53.047Z,51.85
2022-08-23T18:03:23.442Z,51.41
2022-08-23T18:05:56.171Z,51.87
2022-08-23T18:08:27.242Z,51.74
2022-08-23T18:10:58.289Z,52.63
2022-08-23T18:13:28.822Z,52.83
2022-08-23T18:15:58.979Z,53.18
2022-08-23T18:18:30.501Z,53.45
2022-08-23T18:21:07.782Z,53.73
2022-08-23T18:23:39.052Z,53.43
2022-08-23T18:26:31.879Z,53.50
2022-08-23T18:29:01.472Z,53.84
2022-08-23T18:31:33.508Z,53.17
2022-08-23T18:34:04.839Z,53.27
2022-08-23T18:36:40.957Z,54.08
2022-08-23T18:39:11.747Z,54.43
2022-08-23T18:41:42.160Z,54.48
2022-08-23T18:44:13.122Z,54.81
2022-08-23T18:46:47.161Z,55.11
2022-08-23T18:49:17.435Z,55.09
2022-08-23T18:51:50.183Z,56.19
2022-08-23T18:54:20.375Z,56.56
2022-08-23T18:56:50.711Z,56.98
2022-08-23T18:59:21.043Z,57.40
2022-08-23T19:01:51.439Z,57.66
2022-08-23T19:04:21.982Z,58.14
2022-08-23T19:06:55.168Z,59.06
2022-08-23T19:09:25.414Z,58.51
2022-08-23T19:11:55.556Z,58.90
2022-08-23T19:14:25.773Z,58.64
2022-08-23T19:16:56.167Z,59.24
2022-08-23T19:19:27.116Z,59.15
2022-08-23T19:22:00.866Z,59.38
2022-08-23T19:24:31.153Z,59.67
2022-08-23T19:27:01.497Z,59.85
2022-08-23T19:29:31.934Z,59.97
2022-08-23T19:32:03.898Z,60.52
2022-08-23T19:34:34.288Z,60.58
2022-08-23T19:37:10.763Z,60.99
2022-08-23T19:39:50.991Z,60.74
2022-08-23T19:42:21.668Z,60.82
2022-08-23T19:44:52.305Z,60.59
2022-08-23T19:47:28.581Z,61.40
2022-08-23T19:49:58.977Z,61.03
2022-08-23T19:52:31.848Z,61.01
2022-08-23T19:55:05.755Z,61.26
2022-08-23T19:57:37.676Z,61.06
2022-08-23T20:00:19.385Z,61.20
2022-08-23T20:02:50.274Z,60.62
2022-08-23T20:05:22.957Z,60.86
2022-08-23T20:07:55.785Z,60.78
2022-08-23T20:10:25.966Z,61.50
2022-08-23T20:12:56.441Z,61.14
2022-08-23T20:15:26.936Z,61.58
2022-08-23T20:17:58.626Z,61.72
2022-08-23T20:20:28.729Z,61.86
2022-08-23T20:23:13.770Z,62.67
2022-08-23T20:25:43.934Z,62.78
2022-08-23T20:28:14.064Z,62.62
2022-08-23T20:30:44.190Z,62.92
2022-08-23T20:33:14.256Z,63.36
2022-08-23T20:35:44.476Z,63.65
2022-08-23T20:38:22.357Z,64.28
2022-08-23T20:41:04.032Z,64.43
2022-08-23T20:43:35.810Z,64.52
2022-08-23T20:46:06.768Z,64.95
2022-08-23T20:48:37.767Z,65.06
2022-08-23T20:51:09.740Z,65.47
2022-08-23T20:53:43.862Z,65.91
2022-08-23T20:56:14.489Z,66.46
2022-08-23T20:58:44.921Z,66.22
2022-08-23T21:01:16.583Z,67.03
2022-08-23T21:03:46.841Z,66.83
2022-08-23T21:06:20.799Z,67.31
2022-08-23T21:08:56.073Z,67.41
2022-08-23T21:11:27.161Z,67.73
2022-08-23T21:13:58.742Z,67.97
2022-08-23T21:16:29.676Z,68.39
2022-08-23T21:18:59.811Z,68.21
2022-08-23T21:21:30.734Z,68.44
2022-08-23T21:24:03.697Z,68.90
2022-08-23T21:26:34.661Z,68.99
2022-08-23T21:29:05.905Z,69.40
2022-08-23T21:31:36.281Z,69.56
2022-08-23T21:34:07.602Z,69.27
2022-08-23T21:36:38.750Z,69.45
2022-08-23T21:39:11.417Z,69.24
2022-08-23T21:41:44.656Z,69.72
2022-08-23T21:44:17.216Z,69.65
2022-08-23T21:46:47.930Z,69.88
2022-08-23T21:49:21.005Z,69.83
2022-08-23T21:51:53.823Z,69.88
2022-08-23T21:54:26.534Z,70.04
2022-08-23T21:56:56.647Z,69.42
2022-08-23T21:59:27.117Z,69.32
2022-08-23T22:01:57.339Z,69.66
2022-08-23T22:04:27.494Z,69.79
2022-08-23T22:07:00.102Z,69.81
2022-08-23T22:09:33.935Z,70.01
2022-08-23T22:12:04.075Z,71.10
2022-08-23T22:14:34.846Z,70.91
2022-08-23T22:17:05.067Z,70.83
2022-08-23T22:19:35.234Z,71.37
2022-08-23T22:22:05.526Z,71.28
2022-08-23T22:24:38.255Z,72.19
2022-08-23T22:27:09.222Z,72.38
2022-08-23T22:29:39.316Z,72.38
2022-08-23T22:32:09.874Z,72.46
2022-08-23T22:34:39.978Z,72.76
2022-08-23T22:37:10.030Z,72.81
2022-08-23T22:39:44.508Z,72.76
2022-08-23T22:42:16.488Z,72.61
2022-08-23T22:44:46.554Z,73.40
2022-08-23T22:47:16.691Z,73.35
2022-08-23T22:49:46.787Z,73.71
2022-08-23T22:52:17.770Z,73.70
2022-08-23T22:54:50.502Z,74.07
2022-08-23T22:57:20.617Z,73.41
2022-08-23T22:59:55.060Z,73.12
2022-08-23T23:02:25.221Z,73.13
2022-08-23T23:04:57.352Z,72.92
2022-08-23T23:07:39.659Z,73.04
2022-08-23T23:10:13.089Z,73.00
2022-08-23T23:12:43.165Z,73.15
2022-08-23T23:15:13.929Z,72.85
2022-08-23T23:17:44.067Z,73.18
2022-08-23T23:20:27.449Z,73.05
2022-08-23T23:22:57.765Z,73.48
2022-08-23T23:25:30.407Z,73.22
2022-08-23T23:28:05.445Z,72.11
2022-08-23T23:30:36.176Z,71.84
2022-08-23T23:33:06.969Z,71.71
2022-08-23T23:35:38.282Z,72.15
2022-08-23T23:38:10.257Z,71.33
2022-08-23T23:40:43.822Z,71.88
2022-08-23T23:43:14.434Z,71.87
2022-08-23T23:45:44.648Z,71.90
2022-08-23T23:48:14.794Z,71.97
2022-08-23T23:50:46.932Z,72.38
2022-08-23T23:53:17.387Z,72.29
2022-08-23T23:55:50.680Z,72.10
2022-08-23T23:58:20.693Z,72.26
